createdAt,value
2022-10-05T00:02:15.322Z,11.19
2022-10-05T00:04:41.821Z,11.08
2022-10-05T00:07:14.277Z,11.08
2022-10-05T00:09:41.132Z,11.09
2022-10-05T00:12:17.503Z,11.13
2022-10-05T00:14:46.271Z,11.04
2022-10-05T00:17:28.253Z,11.11
2022-10-05T00:19:55.445Z,11.15
2022-10-05T00:22:30.284Z,11.02
2022-10-05T00:25:00.534Z,11.13
2022-10-05T00:27:33.071Z,11.00
2022-10-05T00:30:02.696Z,10.92
2022-10-05T00:32:29.007Z,6.89
2022-10-05T00:34:57.153Z,6.84
2022-10-05T00:37:23.584Z,7.06
2022-10-05T00:39:50.018Z,10.24
2022-10-05T00:42:36.268Z,8.71
2022-10-05T00:45:13.174Z,9.94
2022-10-05T00:48:20.497Z,9.36
2022-10-05T00:50:59.113Z,10.48
2022-10-05T00:53:54.744Z,10.72
2022-10-05T00:56:31.754Z,10.78
2022-10-05T00:59:21.995Z,10.83
2022-10-05T01:02:12.325Z,10.68
2022-10-05T01:05:07.203Z,10.82
2022-10-05T01:08:14.112Z,10.69
2022-10-05T01:10:51.132Z,8.57
2022-10-05T01:13:41.518Z,8.09
2022-10-05T01:16:20.007Z,10.31
2022-10-05T01:18:56.114Z,10.56
2022-10-05T01:21:25.931Z,7.21
2022-10-05T01:24:17.686Z,10.21
2022-10-05T01:27:02.671Z,8.16
2022-10-05T01:29:31.978Z,10.01
2022-10-05T01:32:23.820Z,9.05
2022-10-05T01:35:16.251Z,9.62
2022-10-05T01:37:59.947Z,10.44
2022-10-05T01:40:53.989Z,10.54
2022-10-05T01:43:26.345Z,10.48
2022-10-05T01:46:22.174Z,10.56
2022-10-05T01:48:54.521Z,8.77
2022-10-05T01:51:58.586Z,8.50
2022-10-05T01:54:42.832Z,9.75
2022-10-05T01:57:22.243Z,9.56
2022-10-05T02:00:09.147Z,10.30
2022-10-05T02:02:50.551Z,10.45
2022-10-05T02:05:24.837Z,9.88
2022-10-05T02:08:03.439Z,10.34
2022-10-05T02:10:48.123Z,8.92
2022-10-05T02:13:22.289Z,10.21
2022-10-05T02:15:54.338Z,10.38
2022-10-05T02:18:36.599Z,10.32
2022-10-05T02:21:04.536Z,10.15
2022-10-05T02:23:38.502Z,10.35
2022-10-05T02:26:06.948Z,10.39
2022-10-05T02:28:54.565Z,10.17
2022-10-05T02:31:35.108Z,10.41
2022-10-05T02:34:20.472Z,10.38
2022-10-05T02:36:54.648Z,7.60
2022-10-05T02:39:35.073Z,9.37
2022-10-05T02:42:04.250Z,9.99
2022-10-05T02:45:00.003Z,10.20
2022-10-05T02:47:50.182Z,10.20
2022-10-05T02:50:31.819Z,9.20
2022-10-05T02:53:26.409Z,10.17
2022-10-05T02:56:08.472Z,10.23
2022-10-05T02:59:09.036Z,10.27
2022-10-05T03:02:12.214Z,10.25
2022-10-05T03:04:52.090Z,10.31
2022-10-05T03:07:29.597Z,9.11
2022-10-05T03:10:17.887Z,5.29
2022-10-05T03:13:09.859Z,9.35
2022-10-05T03:15:52.638Z,9.95
2022-10-05T03:18:54.099Z,10.06
2022-10-05T03:21:53.273Z,8.82
2022-10-05T03:24:35.436Z,8.93
2022-10-05T03:27:36.274Z,7.09
2022-10-05T03:30:09.756Z,8.88
2022-10-05T03:33:00.622Z,9.67
2022-10-05T03:35:35.453Z,9.90
2022-10-05T03:38:29.344Z,9.97
2022-10-05T03:41:16.835Z,10.00
2022-10-05T03:44:01.675Z,9.96
2022-10-05T03:46:51.508Z,9.98
2022-10-05T03:49:31.755Z,8.87
2022-10-05T03:52:34.175Z,8.99
2022-10-05T03:55:19.923Z,9.14
2022-10-05T03:57:49.376Z,9.21
2022-10-05T04:00:23.235Z,9.80
2022-10-05T04:03:21.287Z,9.91
2022-10-05T04:05:52.227Z,9.96
2022-10-05T04:08:37.725Z,9.93
2022-10-05T04:11:14.198Z,9.78
2022-10-05T04:13:50.675Z,9.88
2022-10-05T04:16:17.155Z,9.87
2022-10-05T04:19:20.149Z,9.89
2022-10-05T04:21:56.247Z,8.58
2022-10-05T04:24:34.951Z,9.54
2022-10-05T04:27:19.555Z,9.76
2022-10-05T04:30:14.422Z,9.75
2022-10-05T04:32:57.745Z,9.84
2022-10-05T04:35:40.860Z,9.79
2022-10-05T04:38:19.678Z,9.79
2022-10-05T04:40:57.900Z,9.89
2022-10-05T04:43:49.169Z,8.11
2022-10-05T04:46:37.612Z,9.11
2022-10-05T04:49:39.344Z,7.93
2022-10-05T04:52:29.522Z,8.79
2022-10-05T04:55:19.997Z,9.58
2022-10-05T04:58:36.778Z,9.71
2022-10-05T05:01:32.441Z,6.99
2022-10-05T05:04:22.041Z,8.85
2022-10-05T05:06:57.893Z,9.51
2022-10-05T05:09:45.581Z,9.54
2022-10-05T05:12:17.954Z,9.52
2022-10-05T05:14:55.451Z,9.61
2022-10-05T05:17:54.720Z,9.63
2022-10-05T05:20:39.573Z,9.64
2022-10-05T05:23:16.951Z,9.58
2022-10-05T05:25:56.747Z,9.64
2022-10-05T05:29:05.536Z,9.67
2022-10-05T05:31:40.712Z,9.61
2022-10-05T05:34:32.382Z,9.59
2022-10-05T05:37:19.975Z,9.59
2022-10-05T05:40:03.099Z,9.28
2022-10-05T05:42:58.231Z,6.17
2022-10-05T05:45:46.959Z,8.87
2022-10-05T05:48:29.176Z,8.71
2022-10-05T05:51:01.534Z,9.05
2022-10-05T05:53:50.600Z,9.43
2022-10-05T05:56:34.131Z,9.42
2022-10-05T05:59:14.206Z,8.90
2022-10-05T06:01:52.410Z,9.42
2022-10-05T06:04:25.136Z,8.95
2022-10-05T06:06:54.391Z,7.98
2022-10-05T06:09:36.580Z,8.47
2022-10-05T06:12:22.698Z,8.06
2022-10-05T06:14:58.338Z,8.05
2022-10-05T06:17:35.747Z,8.32
2022-10-05T06:20:06.011Z,9.10
2022-10-05T06:22:46.275Z,7.11
2022-10-05T06:25:12.653Z,8.13
2022-10-05T06:28:01.652Z,8.78
2022-10-05T06:30:44.845Z,9.06
2022-10-05T06:33:43.686Z,9.14
2022-10-05T06:36:32.415Z,9.48
2022-10-05T06:39:26.914Z,9.29
2022-10-05T06:42:04.063Z,9.70
2022-10-05T06:44:43.212Z,9.69
2022-10-05T06:47:23.167Z,10.10
2022-10-05T06:50:25.160Z,10.43
2022-10-05T06:53:05.179Z,9.57
2022-10-05T06:55:48.413Z,9.61
2022-10-05T06:58:42.768Z,10.75
2022-10-05T07:01:31.230Z,10.46
2022-10-05T07:04:16.362Z,9.80
2022-10-05T07:07:00.103Z,10.28
2022-10-05T07:09:48.755Z,10.60
2022-10-05T07:12:24.023Z,10.16
2022-10-05T07:15:18.680Z,9.63
2022-10-05T07:17:57.665Z,9.63
2022-10-05T07:20:39.786Z,9.70
2022-10-05T07:23:31.848Z,11.07
2022-10-05T07:26:07.827Z,10.34
2022-10-05T07:28:46.154Z,10.41
2022-10-05T07:31:32.611Z,12.51
2022-10-05T07:34:06.673Z,14.93
2022-10-05T07:37:06.994Z,13.18
2022-10-05T07:40:01.203Z,14.37
2022-10-05T07:42:47.572Z,15.92
2022-10-05T07:45:37.924Z,16.79
2022-10-05T07:48:15.696Z,15.57
2022-10-05T07:51:21.731Z,15.60
2022-10-05T07:54:10.077Z,16.10
2022-10-05T07:56:43.432Z,15.77
2022-10-05T07:59:19.203Z,14.10
2022-10-05T08:01:52.090Z,12.61
2022-10-05T08:04:28.145Z,11.52
2022-10-05T08:06:58.095Z,13.09
2022-10-05T08:09:36.335Z,11.30
2022-10-05T08:12:20.840Z,10.91
2022-10-05T08:14:58.081Z,11.04
2022-10-05T08:17:51.005Z,12.51
2022-10-05T08:20:46.480Z,12.98
2022-10-05T08:23:36.474Z,18.37
2022-10-05T08:26:08.281Z,13.23
2022-10-05T08:28:39.689Z,11.83
2022-10-05T08:31:09.122Z,13.46
2022-10-05T08:34:07.591Z,17.32
2022-10-05T08:36:40.018Z,18.47
2022-10-05T08:39:18.354Z,21.09
2022-10-05T08:41:59.459Z,22.54
2022-10-05T08:44:44.580Z,20.67
2022-10-05T08:47:37.221Z,21.46
2022-10-05T08:50:21.712Z,23.47
2022-10-05T08:53:25.624Z,23.11
2022-10-05T08:56:10.434Z,23.16
2022-10-05T08:59:02.784Z,22.88
2022-10-05T09:01:54.320Z,22.10
2022-10-05T09:04:58.259Z,20.75
2022-10-05T09:07:47.101Z,22.99
2022-10-05T09:10:25.307Z,24.42
2022-10-05T09:13:13.671Z,24.58
2022-10-05T09:16:16.867Z,25.19
2022-10-05T09:19:01.927Z,25.23
2022-10-05T09:22:15.595Z,24.45
2022-10-05T09:24:57.378Z,24.98
2022-10-05T09:27:38.260Z,24.47
2022-10-05T09:30:16.459Z,25.31
2022-10-05T09:32:58.034Z,24.04
2022-10-05T09:35:46.221Z,25.50
2022-10-05T09:38:38.311Z,24.43
2022-10-05T09:41:29.512Z,25.73
2022-10-05T09:44:45.596Z,26.21
2022-10-05T09:47:39.349Z,23.81
2022-10-05T09:50:05.743Z,24.40
2022-10-05T09:52:51.254Z,23.35
2022-10-05T09:55:34.868Z,22.66
2022-10-05T09:58:34.558Z,24.76
2022-10-05T10:01:09.803Z,24.95
2022-10-05T10:04:10.128Z,24.24
2022-10-05T10:06:46.507Z,24.56
2022-10-05T10:09:38.519Z,23.37
2022-10-05T10:12:22.963Z,22.54
2022-10-05T10:15:20.053Z,19.70
2022-10-05T10:18:07.604Z,20.88
2022-10-05T10:20:58.784Z,20.21
2022-10-05T10:23:55.096Z,20.42
2022-10-05T10:26:56.156Z,19.73
2022-10-05T10:29:45.859Z,18.64
2022-10-05T10:32:34.088Z,18.40
2022-10-05T10:35:22.331Z,18.50
2022-10-05T10:38:28.487Z,19.40
2022-10-05T10:41:06.631Z,19.45
2022-10-05T10:44:17.242Z,19.58
2022-10-05T10:46:59.132Z,20.15
2022-10-05T10:49:34.489Z,22.91
2022-10-05T10:52:08.317Z,22.01
2022-10-05T10:54:55.777Z,20.75
2022-10-05T10:57:36.720Z,20.54
2022-10-05T11:00:27.125Z,21.67
2022-10-05T11:03:26.439Z,19.81
2022-10-05T11:06:05.172Z,19.90
2022-10-05T11:08:46.509Z,19.43
2022-10-05T11:11:51.791Z,20.65
2022-10-05T11:14:55.315Z,18.63
2022-10-05T11:17:26.128Z,17.87
2022-10-05T11:20:21.536Z,18.38
2022-10-05T11:23:00.215Z,21.25
2022-10-05T11:25:46.614Z,17.74
2022-10-05T11:28:38.112Z,19.05
2022-10-05T11:31:37.914Z,21.23
2022-10-05T11:34:21.134Z,23.02
2022-10-05T11:37:25.201Z,22.00
2022-10-05T11:40:10.514Z,22.66
2022-10-05T11:43:06.375Z,21.48
2022-10-05T11:45:45.782Z,21.07
2022-10-05T11:48:39.431Z,22.33
2022-10-05T11:51:30.441Z,22.23
2022-10-05T11:54:09.081Z,22.20
2022-10-05T11:57:04.636Z,21.90
2022-10-05T11:59:43.224Z,21.73
2022-10-05T12:02:28.048Z,21.55
2022-10-05T12:05:12.837Z,20.39
2022-10-05T12:08:00.200Z,19.51
2022-10-05T12:10:52.872Z,17.95
2022-10-05T12:13:38.007Z,19.40
2022-10-05T12:16:20.720Z,16.76
2022-10-05T12:19:29.619Z,17.04
2022-10-05T12:22:04.146Z,16.37
2022-10-05T12:24:36.446Z,16.44
2022-10-05T12:27:09.616Z,16.27
2022-10-05T12:29:50.925Z,15.80
2022-10-05T12:32:49.370Z,18.20
2022-10-05T12:35:29.974Z,18.96
2022-10-05T12:38:17.601Z,17.67
2022-10-05T12:41:10.926Z,19.06
2022-10-05T12:44:02.458Z,17.00
2022-10-05T12:46:46.743Z,16.27
2022-10-05T12:49:25.159Z,19.28
2022-10-05T12:51:58.341Z,18.44
2022-10-05T12:54:39.903Z,16.44
2022-10-05T12:57:34.375Z,15.88
2022-10-05T13:00:12.649Z,17.09
2022-10-05T13:02:44.879Z,18.24
2022-10-05T13:05:11.218Z,17.81
2022-10-05T13:07:58.817Z,16.33
2022-10-05T13:10:36.343Z,15.77
2022-10-05T13:13:21.421Z,15.72
2022-10-05T13:16:22.701Z,16.60
2022-10-05T13:19:14.503Z,17.88
2022-10-05T13:21:49.925Z,19.62
2022-10-05T13:24:24.777Z,16.99
2022-10-05T13:26:59.199Z,16.53
2022-10-05T13:29:37.463Z,16.42
2022-10-05T13:32:13.404Z,16.63
2022-10-05T13:34:52.546Z,18.73
2022-10-05T13:37:40.982Z,19.08
2022-10-05T13:40:24.968Z,19.21
2022-10-05T13:43:11.783Z,18.11
2022-10-05T13:45:57.012Z,16.59
2022-10-05T13:48:51.737Z,16.12
2022-10-05T13:51:29.445Z,15.95
2022-10-05T13:54:04.892Z,15.90
2022-10-05T13:56:39.484Z,15.97
2022-10-05T13:59:38.389Z,15.94
2022-10-05T14:02:10.723Z,15.93
2022-10-05T14:04:51.988Z,15.95
2022-10-05T14:07:36.367Z,15.88
2022-10-05T14:10:10.336Z,15.84
2022-10-05T14:12:40.311Z,15.84
2022-10-05T14:15:21.358Z,15.83
2022-10-05T14:17:47.987Z,15.84
2022-10-05T14:20:19.709Z,15.82
2022-10-05T14:22:51.543Z,15.83
2022-10-05T14:25:19.784Z,15.86
2022-10-05T14:27:56.018Z,15.85
2022-10-05T14:30:25.647Z,16.23
2022-10-05T14:33:18.296Z,16.25
2022-10-05T14:35:49.198Z,16.18
2022-10-05T14:38:20.075Z,15.94
2022-10-05T14:41:03.393Z,15.84
2022-10-05T14:43:30.266Z,16.04
2022-10-05T14:45:59.427Z,16.06
2022-10-05T14:48:28.071Z,16.08
2022-10-05T14:50:57.811Z,15.99
2022-10-05T14:53:36.225Z,16.07
2022-10-05T14:56:27.131Z,16.10
2022-10-05T14:59:16.187Z,16.09
2022-10-05T15:01:55.486Z,16.13
2022-10-05T15:04:47.622Z,16.14
2022-10-05T15:07:27.996Z,16.09
2022-10-05T15:10:03.387Z,16.12
2022-10-05T15:12:43.692Z,16.10
2022-10-05T15:15:39.660Z,16.05
2022-10-05T15:18:19.618Z,16.13
2022-10-05T15:21:11.092Z,16.12
2022-10-05T15:23:47.412Z,16.09
2022-10-05T15:26:33.154Z,16.07
2022-10-05T15:29:14.837Z,16.00
2022-10-05T15:31:59.024Z,16.09
2022-10-05T15:34:49.000Z,16.07
2022-10-05T15:37:25.166Z,15.93
2022-10-05T15:40:06.784Z,16.02
2022-10-05T15:42:39.038Z,15.99
2022-10-05T15:45:19.535Z,15.98
2022-10-05T15:47:49.805Z,15.96
2022-10-05T15:50:32.420Z,15.94
2022-10-05T15:53:13.492Z,15.94
2022-10-05T15:55:50.757Z,15.93
2022-10-05T15:58:31.269Z,15.93
2022-10-05T16:01:05.397Z,15.92
2022-10-05T16:03:37.730Z,15.91
2022-10-05T16:06:33.383Z,15.81
2022-10-05T16:09:14.853Z,15.67
2022-10-05T16:12:02.340Z,15.88
2022-10-05T16:14:46.959Z,15.87
2022-10-05T16:17:33.910Z,15.87
2022-10-05T16:20:18.919Z,15.79
2022-10-05T16:23:10.259Z,15.87
2022-10-05T16:26:11.587Z,15.92
2022-10-05T16:28:53.172Z,15.88
2022-10-05T16:31:30.981Z,15.89
2022-10-05T16:34:23.624Z,15.85
2022-10-05T16:36:59.102Z,15.85
2022-10-05T16:39:50.223Z,15.85
2022-10-05T16:42:28.782Z,15.88
2022-10-05T16:45:17.213Z,15.90
2022-10-05T16:47:52.728Z,15.81
2022-10-05T16:50:30.154Z,15.88
2022-10-05T16:53:21.357Z,15.88
2022-10-05T16:55:52.969Z,15.91
2022-10-05T16:58:27.302Z,15.92
2022-10-05T17:00:56.473Z,15.92
2022-10-05T17:03:39.930Z,15.92
2022-10-05T17:06:20.489Z,15.91
2022-10-05T17:09:19.234Z,15.91
2022-10-05T17:12:29.393Z,15.90
2022-10-05T17:15:29.237Z,15.91
2022-10-05T17:18:24.028Z,15.95
2022-10-05T17:21:01.007Z,15.88
2022-10-05T17:23:32.197Z,15.78
2022-10-05T17:26:13.827Z,15.81
2022-10-05T17:29:11.730Z,15.94
2022-10-05T17:32:06.118Z,15.87
2022-10-05T17:34:36.325Z,15.84
2022-10-05T17:37:27.618Z,15.89
2022-10-05T17:39:56.214Z,15.79
2022-10-05T17:42:42.572Z,15.84
2022-10-05T17:45:14.715Z,15.79
2022-10-05T17:47:57.975Z,15.86
2022-10-05T17:51:06.103Z,15.83
2022-10-05T17:54:03.201Z,15.74
2022-10-05T17:56:33.723Z,15.82
2022-10-05T17:59:04.147Z,15.72
2022-10-05T18:01:33.871Z,15.81
2022-10-05T18:04:12.685Z,14.26
2022-10-05T18:06:59.003Z,12.93
2022-10-05T18:09:26.981Z,11.91
2022-10-05T18:12:17.851Z,14.94
2022-10-05T18:15:12.859Z,15.40
2022-10-05T18:17:45.203Z,15.55
2022-10-05T18:20:23.811Z,15.62
2022-10-05T18:22:53.027Z,15.62
2022-10-05T18:25:29.480Z,15.65
2022-10-05T18:28:00.668Z,15.62
2022-10-05T18:30:37.030Z,15.54
2022-10-05T18:33:32.022Z,14.83
2022-10-05T18:36:20.859Z,15.51
2022-10-05T18:38:55.114Z,15.40
2022-10-05T18:41:51.314Z,14.81
2022-10-05T18:44:30.441Z,15.46
2022-10-05T18:47:09.633Z,15.60
2022-10-05T18:49:51.787Z,15.42
2022-10-05T18:52:49.442Z,15.60
2022-10-05T18:55:45.782Z,15.32
2022-10-05T18:58:57.489Z,15.53
2022-10-05T19:01:57.097Z,14.70
2022-10-05T19:04:39.981Z,12.80
2022-10-05T19:07:31.698Z,11.77
2022-10-05T19:10:17.320Z,14.93
2022-10-05T19:12:52.608Z,15.30
2022-10-05T19:15:54.101Z,15.33
2022-10-05T19:18:55.631Z,15.38
2022-10-05T19:21:22.081Z,15.38
2022-10-05T19:23:48.604Z,13.54
2022-10-05T19:26:36.365Z,14.99
2022-10-05T19:29:57.300Z,14.01
2022-10-05T19:32:48.653Z,14.52
2022-10-05T19:35:43.176Z,14.54
2022-10-05T19:38:25.115Z,15.19
2022-10-05T19:41:09.788Z,14.73
2022-10-05T19:43:55.965Z,14.67
2022-10-05T19:46:31.706Z,13.19
2022-10-05T19:49:00.122Z,13.70
2022-10-05T19:51:30.702Z,14.62
2022-10-05T19:54:06.478Z,14.99
2022-10-05T19:56:34.387Z,15.09
2022-10-05T19:59:13.221Z,15.13
2022-10-05T20:01:40.683Z,14.76
2022-10-05T20:04:08.042Z,14.88
2022-10-05T20:06:34.711Z,15.05
2022-10-05T20:09:19.272Z,15.11
2022-10-05T20:11:53.435Z,15.16
2022-10-05T20:14:31.724Z,14.31
2022-10-05T20:17:52.168Z,15.02
2022-10-05T20:20:48.465Z,15.03
2022-10-05T20:23:24.516Z,15.04
2022-10-05T20:26:10.865Z,14.98
2022-10-05T20:28:37.791Z,14.85
2022-10-05T20:31:08.969Z,15.07
2022-10-05T20:33:35.607Z,15.03
2022-10-05T20:36:03.652Z,15.03
2022-10-05T20:38:31.270Z,15.06
2022-10-05T20:40:58.041Z,15.01
2022-10-05T20:43:24.497Z,15.03
2022-10-05T20:45:53.741Z,15.06
2022-10-05T20:48:20.233Z,15.07
2022-10-05T20:50:47.394Z,12.21
2022-10-05T20:53:13.844Z,14.54
2022-10-05T20:55:40.514Z,14.88
2022-10-05T20:58:08.936Z,14.41
2022-10-05T21:00:54.239Z,14.48
2022-10-05T21:03:20.797Z,11.29
2022-10-05T21:05:47.314Z,13.24
2022-10-05T21:08:14.017Z,12.89
2022-10-05T21:10:40.633Z,13.93
2022-10-05T21:13:07.133Z,14.55
2022-10-05T21:15:33.567Z,14.73
2022-10-05T21:17:59.976Z,14.76
2022-10-05T21:20:26.517Z,14.78
2022-10-05T21:22:52.902Z,13.47
2022-10-05T21:25:19.355Z,14.54
2022-10-05T21:27:46.370Z,14.66
2022-10-05T21:30:12.996Z,12.98
2022-10-05T21:32:43.980Z,14.41
2022-10-05T21:35:11.008Z,14.66
2022-10-05T21:37:37.601Z,14.70
2022-10-05T21:40:04.636Z,14.62
2022-10-05T21:42:31.304Z,11.98
2022-10-05T21:44:57.736Z,13.93
2022-10-05T21:47:24.236Z,14.46
2022-10-05T21:49:50.661Z,13.77
2022-10-05T21:52:17.567Z,13.21
2022-10-05T21:54:44.153Z,14.41
2022-10-05T21:57:12.290Z,13.37
2022-10-05T21:59:40.133Z,14.33
2022-10-05T22:02:06.630Z,13.86
2022-10-05T22:04:33.093Z,14.31
2022-10-05T22:06:59.663Z,14.48
2022-10-05T22:09:26.204Z,14.53
2022-10-05T22:11:52.720Z,11.91
2022-10-05T22:14:19.238Z,12.51
2022-10-05T22:16:45.763Z,9.53
2022-10-05T22:19:18.702Z,13.55
2022-10-05T22:21:45.127Z,14.11
2022-10-05T22:24:11.697Z,13.64
2022-10-05T22:26:39.770Z,14.16
2022-10-05T22:29:06.364Z,14.08
2022-10-05T22:31:32.945Z,14.27
2022-10-05T22:33:59.481Z,13.71
2022-10-05T22:36:26.580Z,14.25
2022-10-05T22:38:52.985Z,14.19
2022-10-05T22:41:19.435Z,12.13
2022-10-05T22:43:49.944Z,13.95
2022-10-05T22:46:16.839Z,10.19
2022-10-05T22:48:43.416Z,12.72
2022-10-05T22:51:10.334Z,12.28
2022-10-05T22:53:36.978Z,12.26
2022-10-05T22:56:09.134Z,13.77
2022-10-05T22:58:36.931Z,13.93
2022-10-05T23:01:05.921Z,14.07
2022-10-05T23:03:33.052Z,12.60
2022-10-05T23:06:03.505Z,13.05
2022-10-05T23:08:31.639Z,13.76
2022-10-05T23:11:05.424Z,12.23
2022-10-05T23:13:32.613Z,11.75
2022-10-05T23:16:08.938Z,13.73
2022-10-05T23:18:35.679Z,13.94
2022-10-05T23:21:02.512Z,13.01
2022-10-05T23:23:28.982Z,13.81
2022-10-05T23:26:00.430Z,11.65
2022-10-05T23:28:28.182Z,13.49
2022-10-05T23:31:01.982Z,12.63
2022-10-05T23:33:28.859Z,11.44
2022-10-05T23:36:02.167Z,13.45
2022-10-05T23:38:29.918Z,12.22
2022-10-05T23:40:58.863Z,13.37
2022-10-05T23:43:26.808Z,12.93
2022-10-05T23:45:54.807Z,13.77
2022-10-05T23:48:21.543Z,13.82
2022-10-05T23:50:49.614Z,13.90
2022-10-05T23:53:17.315Z,13.91
2022-10-05T23:55:44.123Z,13.11
2022-10-05T23:58:11.456Z,13.76
